createdAt,value
2018-05-14T02:44:15.491Z,3
2018-05-14T02:52:45.974Z,7
2018-05-14T02:56:16.187Z,10
2018-05-14T02:58:46.310Z,13
2018-05-14T03:00:16.385Z,17
2018-05-14T03:01:46.457Z,20
2018-05-14T03:03:16.588Z,23
2018-05-14T03:04:16.607Z,27
2018-05-14T03:05:16.690Z,30
2018-05-14T03:05:46.725Z,33
2018-05-14T03:06:46.830Z,37
2018-05-14T03:07:16.818Z,40
2018-05-14T03:08:16.848Z,43
2018-05-14T03:08:46.895Z,47
2018-05-14T03:09:16.934Z,50
2018-05-14T03:09:47.077Z,53
2018-05-14T03:10:16.978Z,57
2018-05-14T03:10:47.039Z,60
2018-05-14T03:11:17.050Z,63
2018-05-14T03:11:47.079Z,67
2018-05-14T03:12:17.108Z,73
2018-05-14T03:12:47.129Z,77
2018-05-14T03:13:17.231Z,80
2018-05-14T03:13:47.201Z,87
2018-05-14T03:14:17.311Z,90
2018-05-14T03:14:47.274Z,97
2018-05-14T03:15:17.281Z,100
2018-05-14T03:15:47.350Z,107
2018-05-14T03:16:17.437Z,113
2018-05-14T03:16:47.408Z,117
2018-05-14T03:17:17.484Z,123
2018-05-14T03:17:47.508Z,130
2018-05-14T03:18:17.525Z,137
2018-05-14T03:18:47.521Z,143
2018-05-14T03:19:17.585Z,153
2018-05-14T03:19:47.624Z,160
2018-05-14T03:20:17.611Z,167
2018-05-14T03:20:47.669Z,173
2018-05-14T03:21:17.670Z,183
2018-05-14T03:21:47.723Z,190
2018-05-14T03:22:17.762Z,200
2018-05-14T03:22:47.793Z,210
2018-05-14T03:23:17.857Z,213
2018-05-14T03:23:47.857Z,223
2018-05-14T03:24:17.897Z,233
2018-05-14T03:24:47.911Z,243
2018-05-14T03:25:17.948Z,253
2018-05-14T03:25:47.986Z,263
2018-05-14T03:26:17.963Z,273
2018-05-14T03:26:48.055Z,283
2018-05-14T03:27:18.108Z,297
2018-05-14T03:27:48.110Z,307
2018-05-14T03:28:18.129Z,317
2018-05-14T03:28:48.152Z,330
2018-05-14T03:29:18.191Z,343
2018-05-14T03:29:48.176Z,353
2018-05-14T03:30:18.247Z,367
2018-05-14T03:30:48.270Z,380
2018-05-14T03:31:18.334Z,393
2018-05-14T03:31:48.337Z,407
2018-05-14T03:32:18.371Z,420
2018-05-14T03:32:48.440Z,430
2018-05-14T03:33:18.435Z,443
2018-05-14T03:33:48.492Z,460
2018-05-14T03:34:18.491Z,473
2018-05-14T03:34:48.556Z,490
2018-05-14T03:35:18.534Z,503
2018-05-14T03:35:48.622Z,520
2018-05-14T03:36:18.852Z,533
2018-05-14T03:36:48.642Z,550
2018-05-14T03:37:18.653Z,567
2018-05-14T03:37:48.728Z,583
2018-05-14T03:38:18.739Z,600
2018-05-14T03:38:48.768Z,617
2018-05-14T03:39:18.828Z,633
2018-05-14T03:39:48.825Z,647
2018-05-14T03:40:18.847Z,663
2018-05-14T03:40:48.933Z,680
2018-05-14T03:41:18.995Z,697
2018-05-14T03:41:48.917Z,717
2018-05-14T03:42:18.967Z,733
2018-05-14T03:42:49.007Z,750
2018-05-14T03:43:19.058Z,770
2018-05-14T03:43:49.084Z,787
2018-05-14T03:44:19.098Z,807
2018-05-14T03:44:49.165Z,823
2018-05-14T03:45:19.169Z,843
2018-05-14T03:45:49.204Z,857
2018-05-14T03:46:19.299Z,877
2018-05-14T03:46:49.257Z,893
2018-05-14T03:47:19.282Z,913
2018-05-14T03:47:49.318Z,930
2018-05-14T03:48:19.338Z,950
2018-05-14T03:48:49.347Z,970
2018-05-14T03:49:19.408Z,990
2018-05-14T03:49:49.436Z,1007
2018-05-14T03:50:19.471Z,1027
2018-05-14T03:50:49.497Z,1043
2018-05-14T03:51:19.590Z,1063
2018-05-14T03:51:49.550Z,1080
2018-05-14T03:52:19.571Z,1097
2018-05-14T03:52:49.584Z,1117
2018-05-14T03:53:19.656Z,1137
2018-05-14T03:53:49.684Z,1153
2018-05-14T03:54:19.732Z,1173
2018-05-14T03:54:49.714Z,1193
2018-05-14T03:55:19.743Z,1213
2018-05-14T03:55:49.787Z,1230
2018-05-14T03:56:19.838Z,1250
2018-05-14T03:56:49.840Z,1270
2018-05-14T03:57:19.871Z,1283
2018-05-14T03:57:49.892Z,1303
2018-05-14T03:58:19.940Z,1323
2018-05-14T03:58:49.963Z,1340
2018-05-14T03:59:19.984Z,1360
2018-05-14T03:59:50.011Z,1380
2018-05-14T04:00:20.057Z,1400
2018-05-14T04:00:50.075Z,1420
2018-05-14T04:01:20.195Z,1437
2018-05-14T04:01:50.183Z,1457
2018-05-14T04:02:20.240Z,1477
2018-05-14T04:02:50.265Z,1493
2018-05-14T04:03:20.278Z,1510
2018-05-14T04:03:50.341Z,1527
2018-05-14T04:04:20.311Z,1547
2018-05-14T04:04:50.359Z,1563
2018-05-14T04:05:20.357Z,1583
2018-05-14T04:05:50.427Z,1600
2018-05-14T04:06:20.441Z,1620
2018-05-14T04:06:50.495Z,1637
2018-05-14T04:07:20.537Z,1653
2018-05-14T04:07:50.563Z,1673
2018-05-14T04:08:20.624Z,1690
2018-05-14T04:08:50.570Z,1707
2018-05-14T04:09:20.749Z,1720
2018-05-14T04:09:50.682Z,1737
2018-05-14T04:10:20.736Z,1757
2018-05-14T04:10:50.755Z,1773
2018-05-14T04:11:20.739Z,1790
2018-05-14T04:11:50.828Z,1807
2018-05-14T04:12:20.938Z,1827
2018-05-14T04:12:50.852Z,1843
2018-05-14T04:13:20.853Z,1860
2018-05-14T04:13:50.924Z,1873
2018-05-14T04:14:20.947Z,1893
2018-05-14T04:14:50.982Z,1910
2018-05-14T04:15:21.002Z,1920
2018-05-14T04:15:51.016Z,1937
2018-05-14T04:16:21.061Z,1950
2018-05-14T04:16:52.496Z,1967
2018-05-14T04:17:21.178Z,1983
2018-05-14T04:17:51.172Z,2000
2018-05-14T04:18:21.197Z,2013
2018-05-14T04:18:51.230Z,2030
2018-05-14T04:19:21.284Z,2047
2018-05-14T04:19:51.278Z,2063
2018-05-14T04:20:21.333Z,2077
2018-05-14T04:20:51.347Z,2093
2018-05-14T04:21:21.343Z,2110
2018-05-14T04:21:51.454Z,2127
2018-05-14T04:22:21.485Z,2137
2018-05-14T04:22:51.455Z,2150
2018-05-14T04:23:21.464Z,2167
2018-05-14T04:23:51.579Z,2180
2018-05-14T04:24:21.620Z,2193
2018-05-14T04:24:51.612Z,2207
2018-05-14T04:25:21.657Z,2220
2018-05-14T04:25:51.660Z,2233
2018-05-14T04:26:21.729Z,2247
2018-05-14T04:26:51.792Z,2263
2018-05-14T04:27:21.859Z,2277
2018-05-14T04:27:51.777Z,2290
2018-05-14T04:28:21.817Z,2303
2018-05-14T04:28:51.850Z,2320
2018-05-14T04:29:21.918Z,2333
2018-05-14T04:29:51.875Z,2347
2018-05-14T04:30:21.976Z,2357
2018-05-14T04:30:51.991Z,2373
2018-05-14T04:31:22.039Z,2387
2018-05-14T04:31:52.085Z,2403
2018-05-14T04:32:22.079Z,2417
2018-05-14T04:32:52.085Z,2427
2018-05-14T04:33:22.140Z,2443
2018-05-14T04:33:52.168Z,2457
2018-05-14T04:34:22.256Z,2470
2018-05-14T04:34:52.242Z,2483
2018-05-14T04:35:22.494Z,2500
2018-05-14T04:35:52.571Z,2513
2018-05-14T04:36:22.519Z,2527
2018-05-14T04:36:52.567Z,2540
2018-05-14T04:37:22.597Z,2553
2018-05-14T04:37:52.671Z,2567
2018-05-14T04:38:22.633Z,2580
2018-05-14T04:38:52.674Z,2593
2018-05-14T04:39:22.720Z,2607
2018-05-14T04:39:52.738Z,2623
2018-05-14T04:40:22.755Z,2637
2018-05-14T04:40:52.827Z,2650
2018-05-14T04:41:22.849Z,2663
2018-05-14T04:41:52.872Z,2677
2018-05-14T04:42:22.875Z,2690
2018-05-14T04:42:52.921Z,2707
2018-05-14T04:43:22.956Z,2723
2018-05-14T04:43:52.983Z,2737
2018-05-14T04:44:23.049Z,2750
2018-05-14T04:44:53.040Z,2767
2018-05-14T04:45:23.117Z,2777
2018-05-14T04:45:53.144Z,3363
2018-05-14T04:46:23.193Z,4777
2018-05-14T04:46:53.232Z,6477
2018-05-14T04:47:23.230Z,8127
2018-05-14T04:47:53.323Z,9250
2018-05-14T04:48:23.308Z,9450
2018-05-14T04:48:53.277Z,9517
2018-05-14T04:49:23.345Z,9600
2018-05-14T04:49:53.429Z,9693
2018-05-14T04:50:23.384Z,9773
2018-05-14T04:50:53.507Z,9820
2018-05-14T04:51:23.478Z,9907
2018-05-14T04:51:53.554Z,10007
2018-05-14T04:52:23.546Z,10063
2018-05-14T04:52:53.629Z,10147
2018-05-14T04:53:23.623Z,10140
2018-05-14T04:53:53.636Z,9627
2018-05-14T04:54:23.669Z,9090
2018-05-14T04:54:53.679Z,8270
2018-05-14T04:55:23.771Z,7210
2018-05-14T04:55:53.785Z,6423
2018-05-14T04:56:23.780Z,6223
2018-05-14T04:56:53.824Z,6570
2018-05-14T04:57:23.840Z,6960
2018-05-14T04:57:53.924Z,7203
2018-05-14T04:58:23.894Z,6750
2018-05-14T04:58:53.926Z,6707
2018-05-14T04:59:23.956Z,7473
2018-05-14T04:59:53.960Z,8087
2018-05-14T05:00:23.993Z,9317
2018-05-14T05:00:54.115Z,9653
2018-05-14T05:01:24.090Z,9870
2018-05-14T05:01:54.138Z,10230
2018-05-14T05:02:24.184Z,10107
2018-05-14T05:02:54.252Z,9550
2018-05-14T05:03:24.210Z,8757
2018-05-14T05:03:54.239Z,8263
2018-05-14T05:04:24.281Z,8367
2018-05-14T05:04:54.301Z,8770
2018-05-14T05:05:24.296Z,9030
2018-05-14T05:05:54.387Z,9010
2018-05-14T05:06:24.397Z,8987
2018-05-14T05:06:54.426Z,8807
2018-05-14T05:07:24.448Z,8583
2018-05-14T05:07:54.551Z,7250
2018-05-14T05:08:24.508Z,5943
2018-05-14T05:08:54.556Z,4890
2018-05-14T05:09:24.565Z,4467
2018-05-14T05:09:54.614Z,4823
2018-05-14T05:10:24.679Z,4910
2018-05-14T05:10:54.702Z,4923
2018-05-14T05:11:24.767Z,4890
2018-05-14T05:11:54.762Z,4287
2018-05-14T05:12:24.792Z,4123
2018-05-14T05:12:54.848Z,4700
2018-05-14T05:13:24.846Z,5003
2018-05-14T05:13:54.879Z,5227
2018-05-14T05:14:24.868Z,5023
2018-05-14T05:14:54.909Z,5583
2018-05-14T05:15:24.972Z,6743
2018-05-14T05:15:55.018Z,7467
2018-05-14T05:16:25.038Z,7353
2018-05-14T05:16:55.077Z,6097
2018-05-14T05:17:25.150Z,4867
2018-05-14T05:17:55.162Z,4207
2018-05-14T05:18:25.186Z,3847
2018-05-14T05:18:55.164Z,3770
2018-05-14T05:19:25.274Z,3703
2018-05-14T05:19:55.208Z,3617
2018-05-14T05:20:25.314Z,3590
2018-05-14T05:20:55.296Z,3570
2018-05-14T05:21:25.280Z,3600
2018-05-14T05:21:55.343Z,3553
2018-05-14T05:22:25.422Z,3687
2018-05-14T05:22:55.527Z,3873
2018-05-14T05:23:25.422Z,4617
2018-05-14T05:23:55.447Z,5007
2018-05-14T05:24:25.599Z,4817
2018-05-14T05:24:55.538Z,4860
2018-05-14T05:25:25.550Z,4740
2018-05-14T05:25:55.565Z,4847
2018-05-14T05:26:25.656Z,4817
2018-05-14T05:26:55.688Z,4737
2018-05-14T05:27:25.651Z,4103
2018-05-14T05:27:55.734Z,4337
2018-05-14T05:28:25.826Z,4550
2018-05-14T05:28:55.740Z,5263
2018-05-14T05:29:25.821Z,6103
2018-05-14T05:29:55.824Z,8147
2018-05-14T05:30:25.864Z,10330
2018-05-14T05:30:55.905Z,11387
2018-05-14T05:31:25.903Z,11867
2018-05-14T05:31:55.963Z,12100
2018-05-14T05:32:25.958Z,11657
2018-05-14T05:32:56.012Z,11203
2018-05-14T05:33:26.021Z,8847
2018-05-14T05:33:56.130Z,6113
2018-05-14T05:34:26.123Z,5673
2018-05-14T05:34:56.117Z,6043
2018-05-14T05:35:26.147Z,6160
2018-05-14T05:35:56.250Z,5340
2018-05-14T05:36:26.255Z,4290
2018-05-14T05:36:56.298Z,3917
2018-05-14T05:37:26.308Z,3823
2018-05-14T05:37:56.425Z,4047
2018-05-14T05:38:26.346Z,3940
2018-05-14T05:38:56.398Z,3963
2018-05-14T05:39:26.405Z,3823
2018-05-14T05:39:56.471Z,3780
2018-05-14T05:40:26.513Z,3797
2018-05-14T05:40:56.504Z,3843
2018-05-14T05:41:26.514Z,3857
2018-05-14T05:41:56.578Z,3880
2018-05-14T05:42:26.623Z,3843
2018-05-14T05:42:56.724Z,3883
2018-05-14T05:43:26.679Z,3967
2018-05-14T05:43:56.716Z,3997
2018-05-14T05:44:26.737Z,4157
2018-05-14T05:44:56.762Z,4117
2018-05-14T05:45:26.790Z,4030
2018-05-14T05:45:56.841Z,3983
2018-05-14T05:46:27.592Z,4197
2018-05-14T05:46:56.906Z,4550
2018-05-14T05:47:26.931Z,4937
2018-05-14T05:47:56.957Z,5853
2018-05-14T05:48:26.988Z,5957
2018-05-14T05:48:57.029Z,5680
2018-05-14T05:49:27.007Z,5540
2018-05-14T05:49:57.090Z,4677
2018-05-14T05:50:27.104Z,4170
2018-05-14T05:50:57.141Z,4053
2018-05-14T05:51:27.173Z,3973
2018-05-14T05:51:57.193Z,3923
2018-05-14T05:52:27.316Z,3930
2018-05-14T05:52:57.302Z,3933
2018-05-14T05:53:27.295Z,3943
2018-05-14T05:54:27.365Z,3950
2018-05-14T05:54:57.481Z,3957
2018-05-14T05:55:27.426Z,4007
2018-05-14T05:55:57.494Z,4043
2018-05-14T05:56:27.491Z,4153
2018-05-14T05:56:57.505Z,4060
2018-05-14T05:57:27.550Z,4133
2018-05-14T05:57:57.619Z,4053
2018-05-14T05:58:27.608Z,4007
2018-05-14T05:58:57.617Z,4047
2018-05-14T05:59:27.667Z,4087
2018-05-14T05:59:57.695Z,4037
2018-05-14T06:00:27.713Z,4017
2018-05-14T06:00:57.773Z,4023
2018-05-14T06:01:27.743Z,4037
2018-05-14T06:01:57.801Z,4043
2018-05-14T06:02:27.833Z,4037
2018-05-14T06:02:57.895Z,4040
2018-05-14T06:03:27.935Z,4053
2018-05-14T06:04:58.006Z,4070
2018-05-14T06:05:28.046Z,4067
2018-05-14T06:05:58.053Z,4077
2018-05-14T06:06:28.083Z,4083
2018-05-14T06:06:58.129Z,4093
2018-05-14T06:07:28.197Z,4097
2018-05-14T06:07:58.213Z,4107
2018-05-14T06:08:28.202Z,4110
2018-05-14T06:08:58.253Z,4197
2018-05-14T06:09:28.323Z,4240
2018-05-14T06:09:58.297Z,4247
2018-05-14T06:10:28.354Z,4163
2018-05-14T06:10:58.380Z,4297
2018-05-14T06:11:28.367Z,4227
2018-05-14T06:11:58.407Z,4350
2018-05-14T06:12:28.502Z,4270
2018-05-14T06:12:58.481Z,4213
2018-05-14T06:13:28.525Z,4310
2018-05-14T06:13:58.556Z,4210
2018-05-14T06:14:28.571Z,4353
2018-05-14T06:14:58.621Z,4680
2018-05-14T06:15:28.651Z,5150
2018-05-14T06:15:58.706Z,6117
2018-05-14T06:16:28.678Z,5203
2018-05-14T06:16:58.704Z,4553
2018-05-14T06:17:28.749Z,4320
2018-05-14T06:17:58.762Z,4353
2018-05-14T06:18:28.812Z,4317
2018-05-14T06:18:58.820Z,4350
2018-05-14T06:19:28.889Z,4353
2018-05-14T06:19:58.878Z,4253
2018-05-14T06:20:28.916Z,4257
2018-05-14T06:21:29.025Z,4267
2018-05-14T06:21:59.031Z,4270
2018-05-14T06:22:29.036Z,4313
2018-05-14T06:22:59.089Z,4303
2018-05-14T06:23:29.102Z,4673
2018-05-14T06:23:59.135Z,4967
2018-05-14T06:24:29.199Z,5783
2018-05-14T06:24:59.187Z,6743
2018-05-14T06:25:29.274Z,7403
2018-05-14T06:25:59.283Z,7483
2018-05-14T06:26:29.417Z,7210
2018-05-14T06:26:59.306Z,6583
2018-05-14T06:27:29.407Z,5410
2018-05-14T06:27:59.396Z,5237
2018-05-14T06:28:29.448Z,4833
2018-05-14T06:28:59.455Z,4810
2018-05-14T06:29:29.534Z,5313
2018-05-14T06:29:59.517Z,6167
2018-05-14T06:30:29.564Z,6627
2018-05-14T06:30:59.585Z,6240
2018-05-14T06:31:29.672Z,6157
2018-05-14T06:31:59.657Z,6050
2018-05-14T06:32:29.672Z,5977
2018-05-14T06:32:59.720Z,6013
2018-05-14T06:33:29.739Z,6690
2018-05-14T06:33:59.751Z,7130
2018-05-14T06:34:29.837Z,7303
2018-05-14T06:34:59.836Z,6220
2018-05-14T06:35:29.895Z,5023
2018-05-14T06:35:59.955Z,4687
2018-05-14T06:36:30.012Z,4607
2018-05-14T06:36:59.977Z,4567
2018-05-14T06:37:30.044Z,4523
2018-05-14T06:38:00.012Z,4513
2018-05-14T06:38:30.058Z,4517
2018-05-14T06:39:00.080Z,4527
2018-05-14T06:39:30.130Z,4537
2018-05-14T06:40:30.227Z,4547
2018-05-14T06:41:00.233Z,4560
2018-05-14T06:41:30.322Z,4567
2018-05-14T06:42:01.459Z,4610
2018-05-14T06:42:30.353Z,4667
2018-05-14T06:43:00.842Z,5013
2018-05-14T06:43:30.406Z,5500
2018-05-14T06:44:01.857Z,7570
2018-05-14T06:44:30.425Z,7620
2018-05-14T06:45:01.579Z,7503
2018-05-14T06:45:30.481Z,7257
2018-05-14T06:46:01.541Z,4650
2018-05-14T06:46:30.600Z,4703
2018-05-14T06:47:01.543Z,4680
2018-05-14T06:47:30.568Z,4633
2018-05-14T06:48:00.824Z,4677
2018-05-14T06:48:30.638Z,4780
2018-05-14T06:49:01.240Z,5233
2018-05-14T06:49:30.719Z,4910
2018-05-14T06:50:01.039Z,5303
2018-05-14T06:50:30.930Z,4657
2018-05-14T06:51:01.547Z,4597
2018-05-14T06:51:30.918Z,4620
2018-05-14T06:52:01.562Z,4607
2018-05-14T06:53:01.475Z,4610
2018-05-14T06:53:31.017Z,4617
2018-05-14T06:54:00.969Z,4620
2018-05-14T06:54:31.085Z,4627
2018-05-14T06:55:02.752Z,4633
2018-05-14T06:55:31.158Z,4643
2018-05-14T06:56:02.118Z,4653
2018-05-14T06:56:31.212Z,4663
2018-05-14T06:57:02.045Z,4677
2018-05-14T06:57:31.239Z,4693
2018-05-14T06:58:01.219Z,4730
2018-05-14T06:58:31.317Z,4970
2018-05-14T06:59:02.366Z,4840
2018-05-14T06:59:31.321Z,4820
2018-05-14T07:00:01.343Z,4763
2018-05-14T07:00:31.428Z,4740
2018-05-14T07:01:01.439Z,4727
2018-05-14T07:01:31.490Z,4740
2018-05-14T07:03:01.646Z,4743
2018-05-14T07:03:31.569Z,4753
2018-05-14T07:04:01.625Z,4767
2018-05-14T07:04:31.678Z,4777
2018-05-14T07:05:01.680Z,4770
2018-05-14T07:06:31.746Z,4767
2018-05-14T07:07:01.781Z,4757
2018-05-14T07:07:31.873Z,4850
2018-05-14T07:08:01.877Z,4813
2018-05-14T07:08:31.877Z,4847
2018-05-14T07:09:01.961Z,4810
2018-05-14T07:09:31.942Z,4843
2018-05-14T07:10:02.022Z,4870
2018-05-14T07:10:31.993Z,4940
2018-05-14T07:11:02.026Z,6417
2018-05-14T07:11:32.094Z,6077
2018-05-14T07:12:02.081Z,4933
2018-05-14T07:12:32.115Z,5090
2018-05-14T07:13:02.176Z,5363
2018-05-14T07:13:32.225Z,4950
2018-05-14T07:14:02.203Z,4893
2018-05-14T07:14:32.288Z,4833
2018-05-14T07:15:02.283Z,4837
2018-05-14T07:15:32.331Z,4840
2018-05-14T07:16:02.369Z,4843
2018-05-14T07:16:32.423Z,4860
2018-05-14T07:17:02.390Z,4873
2018-05-14T07:17:32.468Z,4900
2018-05-14T07:18:02.480Z,5107
2018-05-14T07:18:32.515Z,5167
2018-05-14T07:19:02.632Z,5400
2018-05-14T07:19:32.619Z,5087
2018-05-14T07:20:02.606Z,5120
2018-05-14T07:20:32.641Z,4973
2018-05-14T07:21:02.741Z,4943
2018-05-14T07:21:32.717Z,4907
2018-05-14T07:22:02.755Z,4903
2018-05-14T07:22:32.763Z,4923
2018-05-14T07:23:02.874Z,4937
2018-05-14T07:23:32.814Z,4940
2018-05-14T07:24:02.883Z,4950
2018-05-14T07:24:32.920Z,4963
2018-05-14T07:25:02.990Z,5010
2018-05-14T07:25:32.995Z,5017
2018-05-14T07:26:02.944Z,5020
2018-05-14T07:26:33.011Z,5040
2018-05-14T07:27:03.069Z,5067
2018-05-14T07:27:33.094Z,5487
2018-05-14T07:28:03.120Z,6783
2018-05-14T07:28:33.123Z,10150
2018-05-14T07:29:03.170Z,12350
2018-05-14T07:29:33.219Z,11063
2018-05-14T07:30:03.244Z,8887
2018-05-14T07:30:33.248Z,6353
2018-05-14T07:31:03.293Z,5447
2018-05-14T07:31:33.349Z,5110
2018-05-14T07:32:03.348Z,5180
2018-05-14T07:32:33.466Z,5140
2018-05-14T07:33:03.413Z,5150
2018-05-14T07:33:33.494Z,5230
2018-05-14T07:34:03.487Z,5183
2018-05-14T07:34:33.501Z,6493
2018-05-14T07:35:03.502Z,7627
2018-05-14T07:35:33.611Z,12150
2018-05-14T07:36:03.601Z,6323
2018-05-14T07:36:33.647Z,7910
2018-05-14T07:37:03.658Z,7740
2018-05-14T07:37:33.686Z,5957
2018-05-14T07:38:03.682Z,5500
2018-05-14T07:38:33.782Z,7437
2018-05-14T07:39:03.800Z,7307
2018-05-14T07:39:33.804Z,5960
2018-05-14T07:40:03.883Z,6570
2018-05-14T07:40:33.944Z,6723
2018-05-14T07:41:03.899Z,6443
2018-05-14T07:41:33.928Z,7280
2018-05-14T07:42:03.960Z,7870
2018-05-14T07:42:34.009Z,6447
2018-05-14T07:43:04.028Z,6093
2018-05-14T07:43:34.057Z,6283
2018-05-14T07:44:04.140Z,5990
2018-05-14T07:44:34.166Z,5943
2018-05-14T07:45:04.147Z,6143
2018-05-14T07:45:34.214Z,6123
2018-05-14T07:46:04.300Z,7047
2018-05-14T07:46:34.279Z,7810
2018-05-14T07:47:04.269Z,5703
2018-05-14T07:47:34.354Z,5423
2018-05-14T07:48:04.331Z,5377
2018-05-14T07:48:34.384Z,5383
2018-05-14T07:49:04.386Z,5393
2018-05-14T07:49:34.462Z,5390
2018-05-14T07:50:04.472Z,5383
2018-05-14T07:50:34.506Z,5363
2018-05-14T07:51:04.525Z,5540
2018-05-14T07:51:34.583Z,5380
2018-05-14T07:52:04.589Z,5357
2018-05-14T07:52:34.576Z,5373
2018-05-14T07:53:04.642Z,5380
2018-05-14T07:53:34.667Z,5387
2018-05-14T07:54:04.710Z,5383
2018-05-14T07:54:34.702Z,5390
2018-05-14T07:55:04.774Z,5393
2018-05-14T07:55:34.792Z,5407
2018-05-14T07:56:04.827Z,5413
2018-05-14T07:56:34.866Z,5443
2018-05-14T07:57:04.848Z,5490
2018-05-14T07:57:34.894Z,5530
2018-05-14T07:58:04.910Z,5450
2018-05-14T07:58:34.949Z,5643
2018-05-14T07:59:04.997Z,5743
2018-05-14T07:59:35.020Z,5437
2018-05-14T08:00:05.075Z,5573
2018-05-14T08:00:35.147Z,5417
2018-05-14T08:01:05.101Z,5460
2018-05-14T08:01:35.140Z,5447
2018-05-14T08:02:05.186Z,5427
2018-05-14T08:02:35.219Z,5370
2018-05-14T08:03:05.221Z,5383
2018-05-14T08:03:35.311Z,5373
2018-05-14T08:04:05.291Z,5363
2018-05-14T08:04:35.372Z,5503
2018-05-14T08:05:05.347Z,5370
2018-05-14T08:05:35.527Z,5363
2018-05-14T08:06:05.445Z,5383
2018-05-14T08:06:35.499Z,5403
2018-05-14T08:07:35.537Z,5397
2018-05-14T08:08:35.612Z,5410
2018-05-14T08:09:05.646Z,5423
2018-05-14T08:10:05.693Z,5463
2018-05-14T08:10:35.777Z,5473
2018-05-14T08:11:35.861Z,5470
2018-05-14T08:12:05.840Z,5493
2018-05-14T08:12:35.886Z,5540
2018-05-14T08:13:05.884Z,5513
2018-05-14T08:13:35.901Z,5503
2018-05-14T08:14:05.935Z,5537
2018-05-14T08:14:35.967Z,5550
2018-05-14T08:15:06.007Z,5573
2018-05-14T08:15:36.077Z,5590
2018-05-14T08:16:36.107Z,5600
2018-05-14T08:17:06.151Z,5597
2018-05-14T08:17:36.154Z,5590
2018-05-14T08:18:06.193Z,5597
2018-05-14T08:18:36.214Z,5613
2018-05-14T08:19:06.274Z,5617
2018-05-14T08:19:36.285Z,5630
2018-05-14T08:20:06.307Z,5637
2018-05-14T08:20:36.420Z,5650
2018-05-14T08:21:06.336Z,5677
2018-05-14T08:21:36.444Z,5697
2018-05-14T08:22:06.450Z,5710
2018-05-14T08:22:36.508Z,5727
2018-05-14T08:23:06.500Z,5733
2018-05-14T08:23:36.737Z,5743
2018-05-14T08:24:06.550Z,5763
2018-05-14T08:24:36.587Z,5783
2018-05-14T08:25:06.624Z,5790
2018-05-14T08:25:36.721Z,5810
2018-05-14T08:26:07.398Z,5800
2018-05-14T08:26:36.678Z,5793
2018-05-14T08:27:06.740Z,5830
2018-05-14T08:27:36.788Z,5857
2018-05-14T08:28:06.814Z,5827
2018-05-14T08:28:36.922Z,5830
2018-05-14T08:29:06.885Z,5850
2018-05-14T08:29:36.901Z,5847
2018-05-14T08:30:06.933Z,5940
2018-05-14T08:30:36.981Z,5877
2018-05-14T08:31:07.004Z,5957
2018-05-14T08:31:36.992Z,5863
2018-05-14T08:32:07.052Z,5880
2018-05-14T08:32:37.108Z,5893
2018-05-14T08:33:07.124Z,5923
2018-05-14T08:33:37.374Z,5950
2018-05-14T08:34:07.203Z,5977
2018-05-14T08:34:37.182Z,6050
2018-05-14T08:35:07.367Z,6137
2018-05-14T08:35:37.269Z,6087
2018-05-14T08:36:07.309Z,6123
2018-05-14T08:36:37.324Z,6140
2018-05-14T08:37:07.342Z,6217
2018-05-14T08:37:37.385Z,6203
2018-05-14T08:38:07.411Z,6240
2018-05-14T08:38:37.469Z,6253
2018-05-14T08:39:07.478Z,6273
2018-05-14T08:39:37.531Z,6293
2018-05-14T08:40:07.521Z,6303
2018-05-14T08:40:37.606Z,6320
2018-05-14T08:41:07.607Z,6347
2018-05-14T08:41:37.657Z,6367
2018-05-14T08:42:07.661Z,6387
2018-05-14T08:42:37.662Z,6400
2018-05-14T08:43:07.735Z,6373
2018-05-14T08:43:37.748Z,6393
2018-05-14T08:44:07.761Z,6423
2018-05-14T08:44:37.815Z,6437
2018-05-14T08:45:07.832Z,6503
2018-05-14T08:45:37.911Z,6440
2018-05-14T08:46:37.938Z,6463
2018-05-14T08:47:07.948Z,6473
2018-05-14T08:47:37.979Z,6503
2018-05-14T08:48:08.094Z,6520
2018-05-14T08:48:38.051Z,6613
2018-05-14T08:49:38.088Z,6583
2018-05-14T08:50:08.182Z,6607
2018-05-14T08:50:38.181Z,6660
2018-05-14T08:51:08.193Z,6603
2018-05-14T08:51:38.240Z,6593
2018-05-14T08:52:08.285Z,6627
2018-05-14T08:52:38.326Z,6697
2018-05-14T08:53:08.378Z,6640
2018-05-14T08:53:38.431Z,6670
2018-05-14T08:54:08.525Z,6727
2018-05-14T08:54:38.478Z,7167
2018-05-14T08:55:08.492Z,6727
2018-05-14T08:55:38.605Z,6593
2018-05-14T08:56:08.523Z,6687
2018-05-14T08:56:38.600Z,6607
2018-05-14T08:57:08.619Z,6690
2018-05-14T08:57:38.650Z,6737
2018-05-14T08:58:08.679Z,6743
2018-05-14T08:58:38.703Z,6690
2018-05-14T08:59:08.782Z,6697
2018-05-14T08:59:38.777Z,6730
2018-05-14T09:00:08.826Z,6740
2018-05-14T09:00:38.812Z,6720
2018-05-14T09:01:08.909Z,6747
2018-05-14T09:01:38.912Z,6750
2018-05-14T09:02:08.921Z,6763
2018-05-14T09:02:38.967Z,6963
2018-05-14T09:03:09.002Z,6937
2018-05-14T09:03:39.092Z,6863
2018-05-14T09:04:09.066Z,7957
2018-05-14T09:04:39.082Z,7160
2018-05-14T09:05:09.103Z,6973
2018-05-14T09:05:39.148Z,7073
2018-05-14T09:06:09.231Z,8873
2018-05-14T09:06:39.207Z,7583
2018-05-14T09:07:09.251Z,7937
2018-05-14T09:07:39.282Z,8057
2018-05-14T09:08:09.315Z,9960
2018-05-14T09:08:39.334Z,21250
2018-05-14T09:09:09.363Z,10273
2018-05-14T09:09:40.681Z,21370
2018-05-14T09:10:09.465Z,18403
2018-05-14T09:10:39.448Z,19287
2018-05-14T09:11:09.488Z,36707
2018-05-14T09:11:39.558Z,42047
2018-05-14T09:12:09.565Z,44813
2018-05-14T09:12:39.579Z,29207
2018-05-14T09:13:09.600Z,50830
2018-05-14T09:13:39.932Z,52607
2018-05-14T09:14:10.018Z,43183
2018-05-14T09:14:39.964Z,39317
2018-05-14T09:15:10.141Z,26953
2018-05-14T09:15:40.096Z,28030
2018-05-14T09:16:10.101Z,54113
2018-05-14T09:16:40.137Z,19850
2018-05-14T09:17:10.163Z,29430
2018-05-14T09:17:40.189Z,22027
2018-05-14T09:18:10.228Z,24967
2018-05-14T09:18:40.279Z,41107
2018-05-14T09:19:10.284Z,23043
2018-05-14T09:19:40.308Z,31423
2018-05-14T09:20:10.406Z,42030
2018-05-14T09:20:40.347Z,45240
2018-05-14T09:21:10.450Z,37073
2018-05-14T09:21:40.416Z,35283
2018-05-14T09:22:10.471Z,40827
2018-05-14T09:22:40.518Z,40300
2018-05-14T09:23:10.534Z,46300
2018-05-14T09:23:40.542Z,29713
2018-05-14T09:24:10.630Z,51097
2018-05-14T09:24:40.598Z,53447
2018-05-14T09:25:10.676Z,42910
2018-05-14T09:25:40.688Z,54077
2018-05-14T09:26:10.689Z,18033
2018-05-14T09:26:40.743Z,25957
2018-05-14T09:27:10.753Z,27317
2018-05-14T09:27:40.784Z,20960
2018-05-14T09:28:10.813Z,26140
2018-05-14T09:28:40.841Z,30903
2018-05-14T09:29:10.871Z,55823
2018-05-14T09:29:40.911Z,35820
2018-05-14T09:30:10.933Z,30133
2018-05-14T09:30:41.006Z,56690
2018-05-14T09:31:11.021Z,56870
2018-05-14T09:31:41.061Z,16867
2018-05-14T09:32:11.045Z,17677
2018-05-14T09:32:41.074Z,53427
2018-05-14T09:33:11.147Z,11687
2018-05-14T09:33:41.205Z,18073
2018-05-14T09:34:11.207Z,56427
2018-05-14T09:34:41.230Z,42297
2018-05-14T09:35:11.264Z,28113
2018-05-14T09:35:41.347Z,57443
2018-05-14T09:36:11.394Z,25940
2018-05-14T09:36:41.349Z,50650
2018-05-14T09:37:11.406Z,33653
2018-05-14T09:37:41.398Z,57730
2018-05-14T09:38:11.443Z,57247
2018-05-14T09:38:41.523Z,55040
2018-05-14T09:39:11.546Z,41033
2018-05-14T09:39:41.544Z,57620
2018-05-14T09:40:11.575Z,57707
2018-05-14T09:40:41.569Z,57797
2018-05-14T09:41:11.685Z,57893
2018-05-14T09:41:41.687Z,58013
2018-05-14T09:42:11.711Z,57773
2018-05-14T09:42:41.751Z,58087
2018-05-14T09:43:11.737Z,58187
2018-05-14T09:43:41.832Z,58097
2018-05-14T09:44:11.790Z,57697
2018-05-14T09:44:41.815Z,58113
2018-05-14T09:45:11.929Z,58000
2018-05-14T09:45:41.972Z,57947
2018-05-14T09:46:12.001Z,57803
2018-05-14T09:46:42.005Z,58030
2018-05-14T09:47:12.012Z,58150
2018-05-14T09:47:42.017Z,58050
2018-05-14T09:48:12.096Z,58100
2018-05-14T09:48:42.124Z,58230
2018-05-14T09:49:12.128Z,58307
2018-05-14T09:49:42.191Z,58240
2018-05-14T09:50:12.245Z,58247
2018-05-14T09:50:42.224Z,58250